El Paso, TX (88528)

12:16 AM MST on January 28, 2015 (GMT -0700)
APRSWXNET El Paso TX US | Change Station
CLOSE
Current Station
Personal Weather Station
Location: El Paso, TX
Elevation: 4700 ft
Nearby Weather Stations

Elev 4700 ft 31.82 °N, 106.50 °W | Updated 40 minutes ago

Mostly Cloudy
Mostly Cloudy
55 °F
Feels Like 55 °F
N
4
Wind Variable Wind from NNW
Gusts 4.0 mph

Today
High -- | Low -- °F
--% Chance of Precip.
Yesterday
High -- | Low -- °F
Precip. -- in
7:01 AM 5:36 PM
First Quarter, 62% visible
Pressure 30.09 in
Visibility 10.0 miles
Clouds Mostly Cloudy 25000 ft
Dew Point 40 °F
Humidity 56%
Rainfall -999.00 in
Snow Depth Not available.
UV 0 out of 12
Pollen 5.30 out of 12
Air Quality Not available.
Flu Activity Not available.
METAR KELP 280651Z 07003KT 10SM BKN250 10/05 A3020 RMK AO2 SLP190 FU ALQDS T01000050 402060078

More Conditions Fewer Conditions

Pressure 30.09 in
Visibility 10.0 miles
Clouds Mostly Cloudy 25000 ft
Dew Point 40 °F
Humidity 56%
Rainfall -999.00 in
Snow Depth Not available.
UV 0 out of 12
Pollen 5.30 out of 12
Air Quality Not available.
Flu Activity Not available.
METAR KELP 280651Z 07003KT 10SM BKN250 10/05 A3020 RMK AO2 SLP190 FU ALQDS T01000050 402060078

More Conditions Fewer Conditions

10-Day Weather Forecast

Almanac

Astronomy

Jan. 28, 2015 Rise Set
Actual Time
Civil Twilight
Nautical Twilight
Astronomical Twilight
Moon
Length of Visible Light
Length of Day
Tomorrow will be .
, % of the Moon is Illuminated

Today's Extremes

State Highs State Lows

Community

WunderPhotos

Upload Photos

1,791,117 photos uploaded!

WunderBlogs® & News

Nearby

Air Quality

  Air Quality AQ Index Pollutant
Not available.

Snow Depth

Station Depth Elevation

Earthquake Activity

City Distance Mag. Time & Date
Minimum magnitude displayed is 2.5.

Coastal Water Temperatures

Place Temperature

Nearby Weather Stations